sensor_id;sensor_type;location;lat;lon;timestamp;P1;durP1;ratioP1;P2;durP2;ratioP2
67768;SDS011;54569;52.018;5.584;2023-01-06T00:04:20;3.42;;;2.83;;
67768;SDS011;54569;52.018;5.584;2023-01-06T00:28:41;5.68;;;2.92;;
67768;SDS011;54569;52.018;5.584;2023-01-06T01:37:18;5.18;;;3.22;;
67768;SDS011;54569;52.018;5.584;2023-01-06T01:43:44;4.60;;;3.67;;
67768;SDS011;54569;52.018;5.584;2023-01-06T02:55:05;4.43;;;2.30;;
67768;SDS011;54569;52.018;5.584;2023-01-06T03:06:07;3.83;;;1.73;;
67768;SDS011;54569;52.018;5.584;2023-01-06T03:16:09;2.50;;;1.58;;
67768;SDS011;54569;52.018;5.584;2023-01-06T03:26:08;3.80;;;1.55;;
67768;SDS011;54569;52.018;5.584;2023-01-06T04:07:48;1.35;;;1.23;;
67768;SDS011;54569;52.018;5.584;2023-01-06T04:14:03;1.58;;;1.40;;
67768;SDS011;54569;52.018;5.584;2023-01-06T04:20:17;4.30;;;1.63;;
67768;SDS011;54569;52.018;5.584;2023-01-06T04:26:34;2.75;;;1.25;;
67768;SDS011;54569;52.018;5.584;2023-01-06T04:44:10;4.07;;;1.30;;
67768;SDS011;54569;52.018;5.584;2023-01-06T05:07:12;2.42;;;1.20;;
67768;SDS011;54569;52.018;5.584;2023-01-06T05:13:25;4.03;;;1.85;;
67768;SDS011;54569;52.018;5.584;2023-01-06T05:19:37;2.67;;;1.50;;
67768;SDS011;54569;52.018;5.584;2023-01-06T05:25:53;2.10;;;1.40;;
67768;SDS011;54569;52.018;5.584;2023-01-06T05:32:06;1.45;;;1.38;;
67768;SDS011;54569;52.018;5.584;2023-01-06T05:38:20;2.50;;;1.42;;
67768;SDS011;54569;52.018;5.584;2023-01-06T06:20:32;1.98;;;1.50;;
67768;SDS011;54569;52.018;5.584;2023-01-06T06:30:48;1.75;;;1.55;;
67768;SDS011;54569;52.018;5.584;2023-01-06T06:37:02;1.60;;;1.50;;
67768;SDS011;54569;52.018;5.584;2023-01-06T06:55:23;1.67;;;1.58;;
67768;SDS011;54569;52.018;5.584;2023-01-06T08:05:21;3.92;;;3.72;;
67768;SDS011;54569;52.018;5.584;2023-01-06T09:24:31;4.38;;;2.10;;
67768;SDS011;54569;52.018;5.584;2023-01-06T10:34:05;5.60;;;1.90;;
67768;SDS011;54569;52.018;5.584;2023-01-06T10:45:35;6.97;;;1.77;;
67768;SDS011;54569;52.018;5.584;2023-01-06T11:06:02;5.13;;;1.23;;
67768;SDS011;54569;52.018;5.584;2023-01-06T11:08:34;4.03;;;1.40;;
67768;SDS011;54569;52.018;5.584;2023-01-06T11:11:01;2.85;;;1.30;;
67768;SDS011;54569;52.018;5.584;2023-01-06T11:13:33;4.93;;;1.60;;
67768;SDS011;54569;52.018;5.584;2023-01-06T11:16:05;5.43;;;1.95;;
67768;SDS011;54569;52.018;5.584;2023-01-06T11:18:43;8.23;;;2.15;;
67768;SDS011;54569;52.018;5.584;2023-01-06T11:21:15;5.13;;;1.95;;
67768;SDS011;54569;52.018;5.584;2023-01-06T11:23:42;4.22;;;1.50;;
67768;SDS011;54569;52.018;5.584;2023-01-06T11:28:40;3.17;;;1.20;;
67768;SDS011;54569;52.018;5.584;2023-01-06T11:33:46;7.85;;;1.73;;
67768;SDS011;54569;52.018;5.584;2023-01-06T11:36:20;2.88;;;1.40;;
67768;SDS011;54569;52.018;5.584;2023-01-06T11:38:49;3.35;;;1.17;;
67768;SDS011;54569;52.018;5.584;2023-01-06T11:42:03;4.43;;;1.30;;
67768;SDS011;54569;52.018;5.584;2023-01-06T11:47:01;4.95;;;1.35;;
67768;SDS011;54569;52.018;5.584;2023-01-06T11:49:54;4.22;;;1.13;;
67768;SDS011;54569;52.018;5.584;2023-01-06T12:00:29;4.55;;;0.90;;
67768;SDS011;54569;52.018;5.584;2023-01-06T12:03:12;3.40;;;1.10;;
67768;SDS011;54569;52.018;5.584;2023-01-06T12:08:10;4.32;;;1.33;;
67768;SDS011;54569;52.018;5.584;2023-01-06T12:10:42;6.00;;;1.60;;
67768;SDS011;54569;52.018;5.584;2023-01-06T12:13:12;5.63;;;1.35;;
67768;SDS011;54569;52.018;5.584;2023-01-06T12:15:39;3.40;;;1.17;;
67768;SDS011;54569;52.018;5.584;2023-01-06T12:18:09;5.13;;;1.38;;
67768;SDS011;54569;52.018;5.584;2023-01-06T12:20:39;5.35;;;1.02;;
67768;SDS011;54569;52.018;5.584;2023-01-06T12:23:11;4.30;;;0.95;;
67768;SDS011;54569;52.018;5.584;2023-01-06T12:25:48;4.05;;;1.20;;
67768;SDS011;54569;52.018;5.584;2023-01-06T12:33:37;3.33;;;0.95;;
67768;SDS011;54569;52.018;5.584;2023-01-06T12:39:04;4.60;;;0.98;;
67768;SDS011;54569;52.018;5.584;2023-01-06T12:41:41;3.80;;;0.93;;
67768;SDS011;54569;52.018;5.584;2023-01-06T12:44:57;5.65;;;1.35;;
67768;SDS011;54569;52.018;5.584;2023-01-06T12:49:53;3.53;;;0.80;;
67768;SDS011;54569;52.018;5.584;2023-01-06T12:52:37;1.70;;;0.70;;
67768;SDS011;54569;52.018;5.584;2023-01-06T12:55:07;1.65;;;0.77;;
67768;SDS011;54569;52.018;5.584;2023-01-06T13:08:50;2.75;;;0.68;;
67768;SDS011;54569;52.018;5.584;2023-01-06T13:14:21;4.88;;;0.80;;
67768;SDS011;54569;52.018;5.584;2023-01-06T13:27:38;2.85;;;0.77;;
67768;SDS011;54569;52.018;5.584;2023-01-06T13:41:35;2.38;;;0.77;;
67768;SDS011;54569;52.018;5.584;2023-01-06T13:44:04;1.20;;;0.70;;
67768;SDS011;54569;52.018;5.584;2023-01-06T13:46:38;4.93;;;0.93;;
67768;SDS011;54569;52.018;5.584;2023-01-06T13:49:06;4.35;;;0.88;;
67768;SDS011;54569;52.018;5.584;2023-01-06T13:51:35;2.22;;;0.73;;
67768;SDS011;54569;52.018;5.584;2023-01-06T13:54:04;2.72;;;0.80;;
67768;SDS011;54569;52.018;5.584;2023-01-06T13:56:33;2.00;;;0.88;;
67768;SDS011;54569;52.018;5.584;2023-01-06T14:01:48;3.85;;;0.80;;
67768;SDS011;54569;52.018;5.584;2023-01-06T14:07:03;4.00;;;1.20;;
67768;SDS011;54569;52.018;5.584;2023-01-06T14:09:36;3.85;;;0.95;;
67768;SDS011;54569;52.018;5.584;2023-01-06T14:12:10;1.88;;;0.75;;
67768;SDS011;54569;52.018;5.584;2023-01-06T14:14:41;2.58;;;0.75;;
67768;SDS011;54569;52.018;5.584;2023-01-06T14:17:25;1.45;;;0.70;;
67768;SDS011;54569;52.018;5.584;2023-01-06T14:19:53;3.97;;;1.02;;
67768;SDS011;54569;52.018;5.584;2023-01-06T14:22:25;1.00;;;0.80;;
67768;SDS011;54569;52.018;5.584;2023-01-06T14:25:03;2.33;;;0.85;;
67768;SDS011;54569;52.018;5.584;2023-01-06T14:28:21;2.17;;;0.88;;
67768;SDS011;54569;52.018;5.584;2023-01-06T14:30:23;1.70;;;0.80;;
67768;SDS011;54569;52.018;5.584;2023-01-06T14:35:37;3.20;;;1.05;;
67768;SDS011;54569;52.018;5.584;2023-01-06T14:38:29;2.05;;;0.90;;
67768;SDS011;54569;52.018;5.584;2023-01-06T14:41:21;1.38;;;0.80;;
67768;SDS011;54569;52.018;5.584;2023-01-06T14:43:52;4.38;;;1.23;;
67768;SDS011;54569;52.018;5.584;2023-01-06T14:46:19;5.70;;;1.45;;
67768;SDS011;54569;52.018;5.584;2023-01-06T14:49:04;3.78;;;1.30;;
67768;SDS011;54569;52.018;5.584;2023-01-06T14:51:31;3.28;;;0.95;;
67768;SDS011;54569;52.018;5.584;2023-01-06T14:56:28;2.30;;;0.77;;
67768;SDS011;54569;52.018;5.584;2023-01-06T14:59:08;3.95;;;1.20;;
67768;SDS011;54569;52.018;5.584;2023-01-06T15:01:36;4.05;;;1.10;;
67768;SDS011;54569;52.018;5.584;2023-01-06T15:04:03;5.63;;;1.10;;
67768;SDS011;54569;52.018;5.584;2023-01-06T15:06:31;1.15;;;0.88;;
67768;SDS011;54569;52.018;5.584;2023-01-06T15:11:55;4.50;;;1.30;;
67768;SDS011;54569;52.018;5.584;2023-01-06T15:14:28;5.05;;;1.33;;
67768;SDS011;54569;52.018;5.584;2023-01-06T15:16:54;3.55;;;1.00;;
67768;SDS011;54569;52.018;5.584;2023-01-06T15:19:22;2.92;;;1.25;;
67768;SDS011;54569;52.018;5.584;2023-01-06T15:21:49;1.58;;;1.10;;
67768;SDS011;54569;52.018;5.584;2023-01-06T15:24:18;3.03;;;1.45;;
67768;SDS011;54569;52.018;5.584;2023-01-06T15:26:49;5.85;;;1.38;;
67768;SDS011;54569;52.018;5.584;2023-01-06T15:29:21;4.75;;;1.27;;
67768;SDS011;54569;52.018;5.584;2023-01-06T15:31:51;8.68;;;1.75;;
67768;SDS011;54569;52.018;5.584;2023-01-06T15:34:26;3.95;;;1.30;;
67768;SDS011;54569;52.018;5.584;2023-01-06T15:36:57;4.13;;;1.40;;
67768;SDS011;54569;52.018;5.584;2023-01-06T15:39:26;2.38;;;1.23;;
67768;SDS011;54569;52.018;5.584;2023-01-06T15:41:54;5.10;;;1.90;;
67768;SDS011;54569;52.018;5.584;2023-01-06T15:44:22;4.32;;;1.25;;
67768;SDS011;54569;52.018;5.584;2023-01-06T15:46:55;3.95;;;1.52;;
67768;SDS011;54569;52.018;5.584;2023-01-06T15:49:38;5.82;;;2.00;;
67768;SDS011;54569;52.018;5.584;2023-01-06T15:52:36;6.00;;;1.65;;
67768;SDS011;54569;52.018;5.584;2023-01-06T15:55:19;6.63;;;1.90;;
67768;SDS011;54569;52.018;5.584;2023-01-06T16:03:57;3.30;;;1.50;;
67768;SDS011;54569;52.018;5.584;2023-01-06T16:06:25;4.78;;;2.67;;
67768;SDS011;54569;52.018;5.584;2023-01-06T16:11:53;8.77;;;2.13;;
67768;SDS011;54569;52.018;5.584;2023-01-06T16:14:39;6.40;;;2.70;;
67768;SDS011;54569;52.018;5.584;2023-01-06T16:17:11;5.93;;;2.83;;
67768;SDS011;54569;52.018;5.584;2023-01-06T16:20:17;6.45;;;3.22;;
67768;SDS011;54569;52.018;5.584;2023-01-06T16:22:47;14.13;;;5.30;;
67768;SDS011;54569;52.018;5.584;2023-01-06T16:25:22;11.43;;;4.43;;
67768;SDS011;54569;52.018;5.584;2023-01-06T16:27:50;10.63;;;3.15;;
67768;SDS011;54569;52.018;5.584;2023-01-06T16:30:20;8.38;;;3.20;;
67768;SDS011;54569;52.018;5.584;2023-01-06T16:32:46;6.15;;;2.67;;
67768;SDS011;54569;52.018;5.584;2023-01-06T16:35:16;5.93;;;3.17;;
67768;SDS011;54569;52.018;5.584;2023-01-06T16:37:44;7.35;;;2.80;;
67768;SDS011;54569;52.018;5.584;2023-01-06T16:40:13;7.80;;;2.72;;
67768;SDS011;54569;52.018;5.584;2023-01-06T16:42:40;5.43;;;3.20;;
67768;SDS011;54569;52.018;5.584;2023-01-06T16:45:07;6.22;;;2.80;;
67768;SDS011;54569;52.018;5.584;2023-01-06T16:47:40;5.88;;;3.00;;
67768;SDS011;54569;52.018;5.584;2023-01-06T16:50:49;4.68;;;2.53;;
67768;SDS011;54569;52.018;5.584;2023-01-06T16:55:35;5.97;;;2.78;;
67768;SDS011;54569;52.018;5.584;2023-01-06T16:58:04;6.85;;;2.80;;
67768;SDS011;54569;52.018;5.584;2023-01-06T17:00:47;4.40;;;2.33;;
67768;SDS011;54569;52.018;5.584;2023-01-06T17:03:22;3.63;;;1.98;;
67768;SDS011;54569;52.018;5.584;2023-01-06T17:05:49;4.38;;;1.80;;
67768;SDS011;54569;52.018;5.584;2023-01-06T17:08:16;5.65;;;2.00;;
67768;SDS011;54569;52.018;5.584;2023-01-06T17:10:47;3.83;;;1.58;;
67768;SDS011;54569;52.018;5.584;2023-01-06T17:13:13;5.57;;;1.77;;
67768;SDS011;54569;52.018;5.584;2023-01-06T17:21:33;3.50;;;1.80;;
67768;SDS011;54569;52.018;5.584;2023-01-06T17:26:35;6.15;;;1.70;;
67768;SDS011;54569;52.018;5.584;2023-01-06T17:29:01;4.68;;;1.90;;
67768;SDS011;54569;52.018;5.584;2023-01-06T17:31:38;6.00;;;2.28;;
67768;SDS011;54569;52.018;5.584;2023-01-06T17:34:09;4.57;;;1.83;;
67768;SDS011;54569;52.018;5.584;2023-01-06T17:36:38;5.07;;;1.90;;
67768;SDS011;54569;52.018;5.584;2023-01-06T17:39:25;6.10;;;2.03;;
67768;SDS011;54569;52.018;5.584;2023-01-06T17:44:38;2.85;;;1.75;;
67768;SDS011;54569;52.018;5.584;2023-01-06T17:47:29;3.65;;;2.03;;
67768;SDS011;54569;52.018;5.584;2023-01-06T17:55:56;3.95;;;2.20;;
67768;SDS011;54569;52.018;5.584;2023-01-06T17:58:26;6.43;;;2.50;;
67768;SDS011;54569;52.018;5.584;2023-01-06T18:00:53;4.85;;;2.60;;
67768;SDS011;54569;52.018;5.584;2023-01-06T18:03:23;7.35;;;3.33;;
67768;SDS011;54569;52.018;5.584;2023-01-06T18:05:56;6.00;;;3.67;;
67768;SDS011;54569;52.018;5.584;2023-01-06T18:08:36;5.78;;;3.80;;
67768;SDS011;54569;52.018;5.584;2023-01-06T18:13:38;6.88;;;3.97;;
67768;SDS011;54569;52.018;5.584;2023-01-06T18:16:06;7.70;;;4.20;;
67768;SDS011;54569;52.018;5.584;2023-01-06T18:18:48;7.43;;;5.38;;
67768;SDS011;54569;52.018;5.584;2023-01-06T18:23:39;7.85;;;5.88;;
67768;SDS011;54569;52.018;5.584;2023-01-06T18:28:51;6.70;;;5.97;;
67768;SDS011;54569;52.018;5.584;2023-01-06T18:31:37;7.57;;;6.55;;
67768;SDS011;54569;52.018;5.584;2023-01-06T18:34:17;7.18;;;6.53;;
67768;SDS011;54569;52.018;5.584;2023-01-06T18:36:53;8.25;;;6.68;;
67768;SDS011;54569;52.018;5.584;2023-01-06T18:39:22;7.15;;;6.38;;
67768;SDS011;54569;52.018;5.584;2023-01-06T18:41:57;8.63;;;7.40;;
67768;SDS011;54569;52.018;5.584;2023-01-06T18:44:28;7.68;;;6.88;;
67768;SDS011;54569;52.018;5.584;2023-01-06T18:46:55;9.43;;;7.25;;
67768;SDS011;54569;52.018;5.584;2023-01-06T18:49:21;7.78;;;6.80;;
67768;SDS011;54569;52.018;5.584;2023-01-06T18:51:50;7.50;;;6.82;;
67768;SDS011;54569;52.018;5.584;2023-01-06T18:54:17;7.72;;;7.03;;
67768;SDS011;54569;52.018;5.584;2023-01-06T18:56:43;8.40;;;7.60;;
67768;SDS011;54569;52.018;5.584;2023-01-06T18:59:19;8.10;;;7.30;;
67768;SDS011;54569;52.018;5.584;2023-01-06T19:01:51;8.65;;;7.65;;
67768;SDS011;54569;52.018;5.584;2023-01-06T19:04:24;7.78;;;7.07;;
67768;SDS011;54569;52.018;5.584;2023-01-06T19:07:01;7.90;;;7.10;;
67768;SDS011;54569;52.018;5.584;2023-01-06T19:14:41;8.90;;;8.10;;
67768;SDS011;54569;52.018;5.584;2023-01-06T19:17:20;8.57;;;7.68;;
67768;SDS011;54569;52.018;5.584;2023-01-06T19:19:48;9.23;;;7.22;;
67768;SDS011;54569;52.018;5.584;2023-01-06T19:22:21;8.70;;;7.85;;
67768;SDS011;54569;52.018;5.584;2023-01-06T19:25:03;7.90;;;7.22;;
67768;SDS011;54569;52.018;5.584;2023-01-06T19:27:48;7.93;;;7.22;;
67768;SDS011;54569;52.018;5.584;2023-01-06T19:30:39;8.35;;;7.55;;
67768;SDS011;54569;52.018;5.584;2023-01-06T19:35:37;8.55;;;7.75;;
67768;SDS011;54569;52.018;5.584;2023-01-06T19:38:17;8.55;;;7.75;;
67768;SDS011;54569;52.018;5.584;2023-01-06T19:40:53;8.35;;;7.65;;
67768;SDS011;54569;52.018;5.584;2023-01-06T19:43:26;8.18;;;7.47;;
67768;SDS011;54569;52.018;5.584;2023-01-06T19:45:54;8.07;;;7.38;;
67768;SDS011;54569;52.018;5.584;2023-01-06T19:50:46;8.07;;;7.38;;
67768;SDS011;54569;52.018;5.584;2023-01-06T19:53:19;8.48;;;7.78;;
67768;SDS011;54569;52.018;5.584;2023-01-06T19:55:53;8.00;;;7.30;;
67768;SDS011;54569;52.018;5.584;2023-01-06T19:58:22;8.75;;;7.53;;
67768;SDS011;54569;52.018;5.584;2023-01-06T20:00:57;8.48;;;7.65;;
67768;SDS011;54569;52.018;5.584;2023-01-06T20:06:05;8.57;;;7.72;;
67768;SDS011;54569;52.018;5.584;2023-01-06T20:08:30;8.32;;;7.63;;
67768;SDS011;54569;52.018;5.584;2023-01-06T20:10:56;8.07;;;7.35;;
67768;SDS011;54569;52.018;5.584;2023-01-06T20:13:22;8.48;;;7.78;;
67768;SDS011;54569;52.018;5.584;2023-01-06T20:15:48;8.35;;;7.60;;
67768;SDS011;54569;52.018;5.584;2023-01-06T20:18:13;9.02;;;8.20;;
67768;SDS011;54569;52.018;5.584;2023-01-06T20:20:39;8.35;;;7.65;;
67768;SDS011;54569;52.018;5.584;2023-01-06T20:23:04;8.15;;;7.35;;
67768;SDS011;54569;52.018;5.584;2023-01-06T20:25:30;8.30;;;7.60;;
67768;SDS011;54569;52.018;5.584;2023-01-06T20:27:56;7.85;;;7.15;;
67768;SDS011;54569;52.018;5.584;2023-01-06T20:30:21;6.82;;;6.25;;
67768;SDS011;54569;52.018;5.584;2023-01-06T20:32:47;7.32;;;6.70;;
67768;SDS011;54569;52.018;5.584;2023-01-06T20:35:13;7.05;;;6.45;;
67768;SDS011;54569;52.018;5.584;2023-01-06T20:37:39;6.28;;;5.78;;
67768;SDS011;54569;52.018;5.584;2023-01-06T20:40:05;5.55;;;5.05;;
67768;SDS011;54569;52.018;5.584;2023-01-06T20:42:32;6.28;;;5.78;;
67768;SDS011;54569;52.018;5.584;2023-01-06T20:44:57;5.72;;;5.22;;
67768;SDS011;54569;52.018;5.584;2023-01-06T20:47:23;5.47;;;5.07;;
67768;SDS011;54569;52.018;5.584;2023-01-06T20:49:49;5.15;;;4.65;;
67768;SDS011;54569;52.018;5.584;2023-01-06T20:52:14;5.45;;;4.97;;
67768;SDS011;54569;52.018;5.584;2023-01-06T20:54:40;5.38;;;4.93;;
67768;SDS011;54569;52.018;5.584;2023-01-06T20:57:06;5.28;;;4.80;;
67768;SDS011;54569;52.018;5.584;2023-01-06T20:59:32;4.88;;;4.47;;
67768;SDS011;54569;52.018;5.584;2023-01-06T21:01:57;5.03;;;4.63;;
67768;SDS011;54569;52.018;5.584;2023-01-06T21:04:23;5.40;;;5.00;;
67768;SDS011;54569;52.018;5.584;2023-01-06T21:06:49;6.10;;;5.60;;
67768;SDS011;54569;52.018;5.584;2023-01-06T21:09:14;6.65;;;6.05;;
67768;SDS011;54569;52.018;5.584;2023-01-06T21:11:40;5.97;;;5.47;;
67768;SDS011;54569;52.018;5.584;2023-01-06T21:14:06;6.40;;;5.90;;
67768;SDS011;54569;52.018;5.584;2023-01-06T21:16:32;7.32;;;6.70;;
67768;SDS011;54569;52.018;5.584;2023-01-06T21:18:57;7.30;;;6.70;;
67768;SDS011;54569;52.018;5.584;2023-01-06T21:21:23;8.20;;;7.50;;
67768;SDS011;54569;52.018;5.584;2023-01-06T21:23:49;9.15;;;8.35;;
67768;SDS011;54569;52.018;5.584;2023-01-06T21:26:14;9.10;;;8.30;;
67768;SDS011;54569;52.018;5.584;2023-01-06T21:28:40;8.38;;;7.60;;
67768;SDS011;54569;52.018;5.584;2023-01-06T21:31:05;9.02;;;8.23;;
67768;SDS011;54569;52.018;5.584;2023-01-06T21:33:31;9.32;;;8.50;;
67768;SDS011;54569;52.018;5.584;2023-01-06T21:35:57;9.73;;;8.85;;
67768;SDS011;54569;52.018;5.584;2023-01-06T21:38:23;9.00;;;8.23;;
67768;SDS011;54569;52.018;5.584;2023-01-06T21:40:48;11.88;;;9.32;;
67768;SDS011;54569;52.018;5.584;2023-01-06T21:43:14;10.50;;;9.50;;
67768;SDS011;54569;52.018;5.584;2023-01-06T21:45:41;10.63;;;9.73;;
67768;SDS011;54569;52.018;5.584;2023-01-06T21:48:08;9.32;;;8.57;;
67768;SDS011;54569;52.018;5.584;2023-01-06T21:50:39;9.85;;;8.98;;
67768;SDS011;54569;52.018;5.584;2023-01-06T21:53:07;10.15;;;9.20;;
67768;SDS011;54569;52.018;5.584;2023-01-06T21:55:34;9.38;;;8.60;;
67768;SDS011;54569;52.018;5.584;2023-01-06T21:58:00;9.95;;;8.50;;
67768;SDS011;54569;52.018;5.584;2023-01-06T22:00:26;8.80;;;8.10;;
67768;SDS011;54569;52.018;5.584;2023-01-06T22:02:52;9.82;;;9.07;;
67768;SDS011;54569;52.018;5.584;2023-01-06T22:05:17;9.65;;;8.40;;
67768;SDS011;54569;52.018;5.584;2023-01-06T22:07:45;8.70;;;7.90;;
67768;SDS011;54569;52.018;5.584;2023-01-06T22:10:14;8.73;;;7.93;;
67768;SDS011;54569;52.018;5.584;2023-01-06T22:12:45;9.13;;;8.32;;
67768;SDS011;54569;52.018;5.584;2023-01-06T22:15:12;8.13;;;7.40;;
67768;SDS011;54569;52.018;5.584;2023-01-06T22:17:39;8.70;;;7.90;;
67768;SDS011;54569;52.018;5.584;2023-01-06T22:20:05;8.10;;;7.45;;
67768;SDS011;54569;52.018;5.584;2023-01-06T22:22:32;8.52;;;7.82;;
67768;SDS011;54569;52.018;5.584;2023-01-06T22:24:59;9.35;;;8.18;;
67768;SDS011;54569;52.018;5.584;2023-01-06T22:27:26;10.98;;;7.70;;
67768;SDS011;54569;52.018;5.584;2023-01-06T22:29:52;7.95;;;7.18;;
67768;SDS011;54569;52.018;5.584;2023-01-06T22:32:18;8.52;;;7.72;;
67768;SDS011;54569;52.018;5.584;2023-01-06T22:34:44;7.88;;;7.07;;
67768;SDS011;54569;52.018;5.584;2023-01-06T22:37:09;13.65;;;8.32;;
67768;SDS011;54569;52.018;5.584;2023-01-06T22:39:35;7.55;;;6.85;;
67768;SDS011;54569;52.018;5.584;2023-01-06T22:42:01;8.18;;;7.38;;
67768;SDS011;54569;52.018;5.584;2023-01-06T22:44:26;7.45;;;6.78;;
67768;SDS011;54569;52.018;5.584;2023-01-06T22:46:53;8.10;;;7.32;;
67768;SDS011;54569;52.018;5.584;2023-01-06T22:49:20;7.53;;;6.80;;
67768;SDS011;54569;52.018;5.584;2023-01-06T22:51:45;7.93;;;7.10;;
67768;SDS011;54569;52.018;5.584;2023-01-06T22:54:11;7.47;;;6.78;;
67768;SDS011;54569;52.018;5.584;2023-01-06T22:56:37;9.23;;;7.10;;
67768;SDS011;54569;52.018;5.584;2023-01-06T22:59:03;7.70;;;6.95;;
67768;SDS011;54569;52.018;5.584;2023-01-06T23:01:29;6.75;;;6.25;;
67768;SDS011;54569;52.018;5.584;2023-01-06T23:03:54;7.30;;;6.65;;
67768;SDS011;54569;52.018;5.584;2023-01-06T23:06:24;9.35;;;7.13;;
67768;SDS011;54569;52.018;5.584;2023-01-06T23:08:50;8.32;;;7.45;;
67768;SDS011;54569;52.018;5.584;2023-01-06T23:11:16;7.20;;;6.60;;
67768;SDS011;54569;52.018;5.584;2023-01-06T23:13:45;7.50;;;6.90;;
67768;SDS011;54569;52.018;5.584;2023-01-06T23:16:13;7.60;;;6.90;;
67768;SDS011;54569;52.018;5.584;2023-01-06T23:18:41;6.88;;;6.28;;
67768;SDS011;54569;52.018;5.584;2023-01-06T23:21:08;7.55;;;6.95;;
67768;SDS011;54569;52.018;5.584;2023-01-06T23:23:36;7.28;;;6.68;;
67768;SDS011;54569;52.018;5.584;2023-01-06T23:26:08;7.82;;;7.13;;
67768;SDS011;54569;52.018;5.584;2023-01-06T23:28:36;7.55;;;6.85;;
67768;SDS011;54569;52.018;5.584;2023-01-06T23:33:29;7.32;;;6.63;;
67768;SDS011;54569;52.018;5.584;2023-01-06T23:35:58;7.75;;;7.05;;
67768;SDS011;54569;52.018;5.584;2023-01-06T23:38:25;7.95;;;7.25;;
67768;SDS011;54569;52.018;5.584;2023-01-06T23:40:50;7.75;;;6.97;;
67768;SDS011;54569;52.018;5.584;2023-01-06T23:43:16;9.70;;;7.65;;
67768;SDS011;54569;52.018;5.584;2023-01-06T23:45:41;7.75;;;7.00;;
67768;SDS011;54569;52.018;5.584;2023-01-06T23:48:07;8.55;;;7.30;;
67768;SDS011;54569;52.018;5.584;2023-01-06T23:50:33;8.15;;;7.35;;
67768;SDS011;54569;52.018;5.584;2023-01-06T23:52:58;8.20;;;6.85;;
67768;SDS011;54569;52.018;5.584;2023-01-06T23:55:24;8.20;;;7.40;;
67768;SDS011;54569;52.018;5.584;2023-01-06T23:57:49;8.82;;;7.32;;
